Latest Weather Observations for Perth

IDW60901

Issued at 1:05 pm WST Wednesday 26 November 2014 (issued every 10 minutes, with the page automatically refreshed every 10 minutes)

About weather observations | Map of Perth area stations | Latest observations for Perth area | Other Formats
Station Details ID: 009225 Name: PERTH METRO Lat: -31.92 Lon: 115.87 Height: 24.9 m
Data from the previous 72 hours. | See also: Recent months at Perth
Date/Time
WST
Tmp

°C
App
Tmp
°C
Dew
Point
°C
Rel
Hum
%
Delta-T

°C
Wind Press
QNH
hPa
Press
MSL
hPa
Rain
since
9 am
mm
Dir
 
Spd
km/h
Gust
km/h
Spd
kts
Gust
kts
26/01:00pm 31.9 29.9 8.8 24 13.0 E 9 17 5 9 1008.8 1008.8 0.0
26/12:30pm 32.5 30.3 8.0 22 13.6 E 9 19 5 10 1008.6 1008.6 0.0
26/12:00pm 33.0 30.0 9.1 23 13.5 ENE 15 20 8 11 1009.0 1009.0 0.0
26/11:30am 32.1 31.0 11.8 29 11.9 E 9 15 5 8 1009.6 1009.6 0.0
26/11:00am 30.0 28.6 11.0 31 10.9 E 9 20 5 11 1010.3 1010.3 0.0
26/10:30am 27.9 25.4 9.7 32 10.1 E 13 22 7 12 1010.9 1010.9 0.0
26/10:00am 26.5 24.0 9.8 35 9.3 ESE 13 22 7 12 1011.4 1011.4 0.0
26/09:30am 25.4 22.0 9.3 36 8.8 ENE 17 28 9 15 1011.8 1011.8 0.0
26/09:00am 24.9 23.1 9.6 38 8.4 E 9 26 5 14 1012.1 1012.1 0.0
26/08:30am 24.3 22.2 9.8 40 7.9 ESE 11 22 6 12 1012.4 1012.3 0.0
26/08:00am 22.9 21.1 11.0 47 6.6 E 11 19 6 10 1012.7 1012.6 0.0
26/07:30am 21.7 19.7 10.2 48 6.3 E 11 24 6 13 1012.8 1012.7 0.0
26/07:00am 21.0 19.5 10.5 51 5.7 E 9 19 5 10 1012.7 1012.6 0.0
26/06:30am 20.0 17.6 10.1 53 5.3 E 13 24 7 13 1012.6 1012.5 0.0
26/06:00am 19.7 16.9 10.1 54 5.2 E 15 30 8 16 1012.6 1012.5 0.0
26/05:30am 19.7 16.9 10.1 54 5.2 E 15 26 8 14 1012.5 1012.4 0.0
26/05:00am 19.6 16.1 10.3 55 5.0 E 19 28 10 15 1012.6 1012.5 0.0
26/04:30am 19.6 17.3 10.3 55 5.0 E 13 24 7 13 1012.6 1012.5 0.0
26/04:00am 19.6 17.7 10.6 56 4.9 ESE 11 24 6 13 1012.4 1012.3 0.0
26/03:30am 19.9 17.6 10.6 55 5.0 ESE 13 28 7 15 1012.3 1012.2 0.0
26/03:00am 20.5 17.5 10.6 53 5.4 E 17 33 9 18 1012.0 1012.0 0.0
26/02:30am 21.3 18.9 9.9 48 6.2 E 13 28 7 15 1011.9 1011.9 0.0
26/02:00am 21.7 19.6 9.6 46 6.5 E 11 20 6 11 1012.0 1012.0 0.0
26/01:30am 22.3 19.8 9.8 45 6.8 E 13 26 7 14 1012.0 1012.0 0.0
26/01:00am 23.4 19.4 9.0 40 7.7 E 20 37 11 20 1011.8 1011.8 0.0
26/12:30am 24.2 20.8 9.0 38 8.2 E 17 35 9 19 1011.7 1011.7 0.0
26/12:00am 25.4 21.2 8.4 34 9.1 E 20 35 11 19 1011.8 1011.8 0.0
 
Date/Time
WST
Tmp

°C
App
Tmp
°C
Dew
Point
°C
Rel
Hum
%
Delta-T

°C
Wind Press
QNH
hPa
Press
MSL
hPa
Rain
since
9 am
mm
Dir
 
Spd
km/h
Gust
km/h
Spd
kts
Gust
kts
25/11:30pm 26.5 22.0 6.0 27 10.6 E 19 35 10 19 1011.9 1011.9 0.0
25/11:00pm 26.9 22.1 4.6 24 11.3 ESE 19 33 10 18 1012.1 1012.1 0.0
25/10:30pm 27.7 23.6 4.1 22 11.9 ESE 15 35 8 19 1012.4 1012.3 0.0
25/10:00pm 27.5 23.7 3.9 22 11.9 SE 13 28 7 15 1012.6 1012.5 0.0
25/09:30pm 27.5 24.5 3.9 22 11.9 SE 9 19 5 10 1012.7 1012.6 0.0
25/09:00pm 26.9 24.1 5.2 25 11.1 SE 9 15 5 8 1012.8 1012.7 0.0
25/08:30pm 27.5 24.8 5.7 25 11.3 SSE 9 13 5 7 1012.8 1012.7 0.0
25/08:00pm 28.3 25.8 6.4 25 11.6 SSE 9 15 5 8 1012.6 1012.5 0.0
25/07:30pm 29.3 26.2 5.4 22 12.5 SE 11 15 6 8 1012.1 1012.1 0.0
25/07:00pm 30.6 27.0 5.1 20 13.4 SE 13 24 7 13 1011.9 1011.9 0.0
25/06:30pm 31.7 27.9 3.7 17 14.4 SE 13 26 7 14 1011.8 1011.8 0.0
25/06:00pm 32.6 28.5 4.4 17 14.8 SE 15 28 8 15 1011.9 1011.9 0.0
25/05:30pm 33.5 30.3 5.1 17 15.1 SE 11 20 6 11 1011.8 1011.8 0.0
25/05:00pm 33.7 30.0 4.4 16 15.4 SE 13 19 7 10 1012.0 1012.0 0.0
25/04:30pm 34.0 30.5 3.7 15 15.8 ENE 11 20 6 11 1012.3 1012.2 0.0
25/04:00pm 34.2 31.5 5.7 17 15.4 SE 9 13 5 7 1012.6 1012.5 0.0
25/03:30pm 34.2 31.9 5.7 17 15.4 SSE 7 13 4 7 1012.9 1012.8 0.0
25/03:00pm 33.8 30.8 6.2 18 15.0 ESE 11 19 6 10 1013.2 1013.1 0.0
25/02:30pm 33.8 30.8 7.7 20 14.5 SSE 13 20 7 11 1013.6 1013.5 0.0
25/02:00pm 33.3 31.0 7.3 20 14.3 ESE 9 17 5 9 1014.1 1014.0 0.0
25/01:30pm 32.6 29.5 7.4 21 13.8 ESE 13 24 7 13 1014.5 1014.4 0.0
25/01:00pm 32.0 29.5 8.3 23 13.2 ESE 11 22 6 12 1015.0 1014.9 0.0
25/12:30pm 31.2 28.6 9.4 26 12.3 ESE 13 20 7 11 1015.6 1015.5 0.0
25/12:00pm 30.1 28.1 10.1 29 11.3 ESE 11 20 6 11 1016.0 1015.9 0.0
25/11:30am 29.0 26.0 9.2 29 11.0 ESE 15 24 8 13 1016.5 1016.4 0.0
25/11:00am 28.0 26.0 10.2 33 10.0 ESE 11 24 6 13 1017.0 1016.9 0.0
25/10:30am 25.9 23.1 8.4 33 9.4 E 13 24 7 13 1017.3 1017.2 0.0
25/10:00am 25.8 23.9 10.4 38 8.6 E 11 20 6 11 1017.8 1017.7 0.0
25/09:30am 24.2 21.9 9.0 38 8.2 ESE 11 20 6 11 1018.2 1018.1 0.0
25/09:00am 22.8 20.3 9.6 43 7.1 ESE 13 24 7 13 1018.5 1018.4 0.0
25/08:30am 20.8 18.3 8.1 44 6.6 E 11 22 6 12 1018.8 1018.7 0.0
25/08:00am 19.4 16.6 8.7 50 5.6 E 13 26 7 14 1019.0 1018.9 0.0
25/07:30am 18.3 15.8 8.0 51 5.3 E 11 24 6 13 1019.0 1018.9 0.0
25/07:00am 16.9 14.0 8.1 56 4.5 E 13 24 7 13 1018.9 1018.8 0.0
25/06:30am 15.6 12.3 7.9 60 3.9 E 15 32 8 17 1018.8 1018.7 0.0
25/06:00am 14.9 11.5 7.7 62 3.6 E 15 32 8 17 1018.5 1018.4 0.0
25/05:30am 14.7 12.0 7.5 62 3.6 E 11 24 6 13 1018.3 1018.2 0.0
25/05:00am 15.1 12.5 7.6 61 3.7 E 11 22 6 12 1018.1 1018.0 0.0
25/04:30am 15.3 13.2 8.1 62 3.6 E 9 15 5 8 1017.9 1017.8 0.0
25/04:00am 15.5 13.4 8.3 62 3.6 E 9 17 5 9 1017.7 1017.6 0.0
25/03:30am 15.6 14.0 8.6 63 3.6 E 7 15 4 8 1017.7 1017.6 0.0
25/03:00am 16.5 14.3 8.0 57 4.3 E 9 15 5 8 1017.6 1017.5 0.0
25/02:30am 17.3 14.7 7.9 54 4.8 E 11 22 6 12 1017.8 1017.7 0.0
25/02:00am 17.8 15.4 7.2 50 5.3 E 9 19 5 10 1017.7 1017.6 0.0
25/01:30am 18.1 15.2 6.6 47 5.7 E 11 20 6 11 1017.8 1017.7 0.0
25/01:00am 15.0 14.7 10.2 73 2.5 S 2 7 1 4 1017.9 1017.8 0.0
25/12:30am 15.2 14.4 11.0 76 2.2 S 6 11 3 6 1018.1 1018.0 0.0
25/12:00am 15.0 15.4 11.4 79 1.9 CALM 0 6 0 3 1018.2 1018.1 0.0
 
Date/Time
WST
Tmp

°C
App
Tmp
°C
Dew
Point
°C
Rel
Hum
%
Delta-T

°C
Wind Press
QNH
hPa
Press
MSL
hPa
Rain
since
9 am
mm
Dir
 
Spd
km/h
Gust
km/h
Spd
kts
Gust
kts
24/11:30pm 16.6 15.9 11.3 71 2.9 SSE 6 9 3 5 1018.2 1018.1 0.0
24/11:00pm 17.2 16.0 11.5 69 3.1 SSE 9 13 5 7 1018.4 1018.3 0.0
24/10:30pm 17.8 16.5 11.4 66 3.5 S 9 15 5 8 1018.6 1018.5 0.0
24/10:00pm 18.3 16.7 11.6 65 3.7 S 11 19 6 10 1018.9 1018.8 0.0
24/09:30pm 18.5 16.5 11.6 64 3.8 S 13 17 7 9 1019.1 1019.0 0.0
24/09:00pm 18.9 17.3 11.5 62 4.1 S 11 17 6 9 1019.2 1019.1 0.0
24/08:30pm 19.1 17.2 11.7 62 4.1 S 13 20 7 11 1019.1 1019.0 0.0
24/08:00pm 19.1 17.4 12.4 65 3.7 S 13 20 7 11 1018.9 1018.8 0.0
24/07:30pm 19.4 17.6 12.2 63 4.0 S 13 22 7 12 1018.8 1018.7 0.0
24/07:00pm 19.7 17.5 12.0 61 4.3 S 15 22 8 12 1018.7 1018.6 0.0
24/06:30pm 20.0 17.9 12.5 62 4.2 SSW 15 30 8 16 1018.5 1018.4 0.0
24/06:00pm 20.7 17.7 12.1 58 4.8 SSW 19 28 10 15 1018.2 1018.1 0.0
24/05:30pm 21.5 18.2 11.5 53 5.6 SW 20 39 11 21 1017.8 1017.7 0.0
24/05:00pm 21.8 18.3 10.9 50 6.0 SSW 20 37 11 20 1017.8 1017.7 0.0
24/04:30pm 22.7 19.3 11.1 48 6.4 SW 20 33 11 18 1017.7 1017.6 0.0
24/04:00pm 22.3 18.8 10.8 48 6.3 SW 20 33 11 18 1017.8 1017.7 0.0
24/03:30pm 22.8 18.9 10.9 47 6.6 SW 22 33 12 18 1018.0 1017.9 0.0
24/03:00pm 23.4 19.6 9.8 42 7.4 SW 20 30 11 16 1018.2 1018.1 0.0
24/02:30pm 25.4 22.3 10.4 39 8.4 SSW 17 26 9 14 1018.4 1018.3 0.0
24/02:00pm 24.9 21.9 9.2 37 8.5 SSW 15 20 8 11 1018.6 1018.5 0.0
24/01:30pm 26.1 23.0 5.7 27 10.5 SSE 11 17 6 9 1018.8 1018.7 0.0
24/01:00pm 25.3 22.5 5.0 27 10.2 SSE 9 20 5 11 1019.2 1019.1 0.0
24/12:30pm 24.8 21.5 6.5 31 9.5 SSE 13 20 7 11 1019.6 1019.5 0.0
24/12:00pm 24.5 22.1 7.2 33 9.0 E 9 20 5 11 1020.1 1020.0 0.0
24/11:30am 23.0 20.5 6.7 35 8.4 E 9 19 5 10 1020.5 1020.4 0.0
24/11:00am 22.7 20.0 7.3 37 8.0 E 11 20 6 11 1020.9 1020.8 0.0
24/10:30am 21.7 19.3 6.8 38 7.6 ESE 9 15 5 8 1021.3 1021.2 0.0
24/10:00am 20.9 18.0 6.4 39 7.3 ESE 11 20 6 11 1021.6 1021.5 0.0
24/09:30am 19.7 16.3 5.7 40 6.9 ESE 13 24 7 13 1021.8 1021.7 0.0
24/09:00am 19.2 16.1 7.3 46 6.0 E 13 20 7 11 1022.2 1022.1 0.0
24/08:30am 18.0 14.7 6.5 47 5.7 E 13 26 7 14 1022.4 1022.3 0.0
24/08:00am 16.7 13.4 6.5 51 5.0 E 13 24 7 13 1022.5 1022.4 0.0
24/07:30am 15.8 12.0 6.0 52 4.7 E 15 26 8 14 1022.4 1022.3 0.0
24/07:00am 15.1 12.1 6.1 55 4.3 E 11 26 6 14 1022.5 1022.4 0.0
24/06:30am 14.3 11.3 6.2 58 3.9 E 11 20 6 11 1022.3 1022.2 0.0
24/06:00am 13.2 10.5 5.4 59 3.6 ESE 9 17 5 9 1022.3 1022.2 0.0
24/05:30am 12.5 10.1 5.4 62 3.3 ESE 7 13 4 7 1022.1 1022.0 0.0
24/05:00am 12.4 9.2 5.3 62 3.3 SE 11 17 6 9 1021.8 1021.7 0.0
24/04:30am 12.2 9.4 5.1 62 3.3 SE 9 17 5 9 1021.4 1021.3 0.0
24/04:00am 12.4 9.5 6.5 67 2.8 SE 11 19 6 10 1021.2 1021.1 0.0
24/03:30am 12.8 9.0 5.9 63 3.3 SSE 15 22 8 12 1021.2 1021.1 0.0
24/03:00am 12.4 9.4 5.8 64 3.1 SSE 11 19 6 10 1021.0 1020.9 0.0
24/02:30am 12.6 9.6 6.2 65 3.0 SSE 11 19 6 10 1020.8 1020.7 0.0
24/02:00am 12.8 9.9 6.4 65 3.0 SSE 11 17 6 9 1020.8 1020.7 0.0
24/01:30am 12.9 10.0 6.7 66 3.0 S 11 17 6 9 1020.8 1020.7 0.0
24/01:00am 13.2 10.0 6.8 65 3.1 S 13 19 7 10 1020.7 1020.6 0.0
24/12:30am 13.6 10.4 6.9 64 3.2 S 13 19 7 10 1020.5 1020.4 0.0
24/12:00am 14.1 10.5 6.9 62 3.5 S 15 24 8 13 1020.5 1020.4 0.0
 
Date/Time
WST
Tmp

°C
App
Tmp
°C
Dew
Point
°C
Rel
Hum
%
Delta-T

°C
Wind Press
QNH
hPa
Press
MSL
hPa
Rain
since
9 am
mm
Dir
 
Spd
km/h
Gust
km/h
Spd
kts
Gust
kts
23/11:30pm 14.4 11.2 7.0 61 3.6 S 13 22 7 12 1020.4 1020.3 0.0
23/11:00pm 15.0 11.9 7.1 59 3.9 S 13 19 7 10 1020.4 1020.3 0.0
23/10:30pm 15.7 11.4 7.2 57 4.2 S 19 28 10 15 1020.3 1020.2 0.0
23/10:00pm 16.4 12.4 8.1 58 4.2 S 19 28 10 15 1020.2 1020.1 0.0
23/09:30pm 16.8 14.7 9.7 63 3.7 S 11 24 6 13 1020.1 1020.0 0.0
23/09:00pm 17.0 14.7 10.4 65 3.5 S 13 22 7 12 1019.9 1019.8 0.0
23/08:30pm 17.0 14.6 10.1 64 3.6 S 13 22 7 12 1019.6 1019.5 0.0
23/08:00pm 17.2 14.4 10.1 63 3.7 SSW 15 22 8 12 1019.3 1019.2 0.0
23/07:30pm 17.4 14.3 10.3 63 3.8 SSW 17 28 9 15 1018.9 1018.8 0.0
23/07:00pm 17.5 14.2 9.7 60 4.1 SW 17 28 9 15 1018.6 1018.5 0.0
23/06:30pm 18.0 14.6 9.1 56 4.6 SW 17 33 9 18 1018.2 1018.1 0.0
23/06:00pm 18.8 14.9 8.5 51 5.3 SW 19 30 10 16 1017.8 1017.7 0.0
23/05:30pm 19.3 15.5 8.9 51 5.4 SW 19 35 10 19 1017.5 1017.4 0.0
23/05:00pm 20.0 16.2 9.0 49 5.8 SSW 19 35 10 19 1017.5 1017.4 0.0
23/04:30pm 20.3 16.3 9.2 49 5.9 SW 20 39 11 21 1017.2 1017.1 0.0
23/04:00pm 20.3 16.0 9.2 49 5.9 SSW 22 35 12 19 1017.1 1017.0 0.0
23/03:30pm 20.9 17.2 9.5 48 6.1 SSW 19 30 10 16 1017.0 1016.9 0.0
23/03:00pm 20.9 17.1 9.2 47 6.2 SSW 19 39 10 21 1016.9 1016.8 0.0
23/02:30pm 21.7 18.4 10.8 50 6.0 SSW 19 33 10 18 1017.0 1016.9 0.0
23/02:00pm 21.5 18.2 10.9 51 5.8 SW 19 32 10 17 1017.1 1017.0 0.0
23/01:30pm 21.0 17.5 10.2 50 5.9 SW 19 28 10 15 1017.3 1017.2 0.0

Latest Capital City Observations: Canberra | Sydney | Melbourne | Brisbane | Adelaide | Perth | Hobart | Darwin

Other Formats:

Comma delimited format used in spreadsheet applications
http://www.bom.gov.au/fwo/IDW60901/IDW60901.94608.axf

JavaScript Object Notation format (JSON) in row-major order
http://www.bom.gov.au/fwo/IDW60901/IDW60901.94608.json